Aviation Digital Data Service (ADDS)

Output produced by METARs form (1011 UTC 29 July 2016)
found at http://aviationweather.gov/adds/metars/
 
KART 290907Z 2909/3006 04008KT P6SM BKN100 BKN250